Terminal Aerodrome Forecast
Issued by NWS

Home | Current Version | Previous Version | Text Only | Print | Product List | Glossary On
Versions: 1 2 3 4 5 6 7 8 9 10 11 12 13 14 15 16 17 18 19
000
FTUS43 KDLH 031700
TAFHIB
TAF
KHIB 031733Z 0318/0418 33012KT P6SM SKC
     FM040300 32004KT P6SM SKC
     FM041600 36012G25KT P6SM SKC=

USA.gov is the U.S. government's official web portal to all federal, state and local government web resources and services.